메인 페이지
METAR-TAF:

METAR-TAF

공항 :

Pecos, 텍사스, 미국

위도: 31-22-56N, 경도: 103-30-38W, 고도: 796m

현재 날씨관측

예보는 25분 전, 23:15시(UTC)에 발표되었습니다.
17kt, 순간 최대 풍속 22kt
온도 40°C
습도 14%
기압 1012 hPa
시정: 16.1km

METAR: KPEQ 132315Z AUTO 09017G22KT 10SM 40/07 A2989 RMK AO2 T04000069

시각: 18:40 (23:40 UTC)

예보

예보는 20분 전, 23:20시(UTC)에 발표되었습니다.
예보 대상 시간: 14일 00시부터 14일 24시까지 (UTC)
10kt
시정: 10km
맑음
14일 1600시부터 (UTC)
남동16kt, 순간 최대 풍속 23kt
시정: 10km
맑음

TAF: KPEQ 132320Z 1400/1424 10010KT P6SM SKC FM141600 14016G23KT P6SM SKC

4,000개 이상의 공항 관측 자료 및 예보 (METAR 및 TAF 보고).

지도상에서 검색 가능한 기상관측소가 노란 점과 빨간 점으로 표시되어 있습니다.

기상관측소 명을 보려면 표시 위로 마우스를 이동하세요.

날씨 관측과 예보를 보려면 클릭하세요.

지도 변경 : 확대하려면 엑스 표시가 있는 녹색 버튼, 축소하려면 빼기 표시가 있는 녹색 버튼, 다음 페이지의 지도를 보려면 녹색 화살표를 클릭하세요.


METAR-TAF: